Ituverava, Brazil
Current Conditions -  °F | °C
As of 4:00 AM on Sunday 26 Oct 2014 (Local Time) from SBUR Reporting Station
Light Rain Light Rain  
Wind Chill: 66°   Ceiling: 7000
Heat Index: 66°   Visibility: 3mi
Dew Point: 64°   Wind: 9mph
Humidity: 94%   Direction: 50°NE
Pressure: 29.97"   Gusts: NA
Location:  20.33°S, 47.79°W
Report Text: SBUR 260600Z 05008KT 5000 -RA BR SCT040 OVC070 19/18 Q1015
Loading
Personal Weather Stations






























Interactive Weather Map
Tropical Storm Tracking
New forecast layout! Learn more

10-Day Weather Forecast

Advertisements
Track Severe Weather on mobile